Wetterdaten: Woche 09.02.26 - 15.02.26 (KW7)
Datum Zeit Temp. Aussen Temp. o. S. Temp +5cm Feuchte Auss Luftdruck Regen Sonnenschein Regendauer Solar Windböen Empfang
09.02.2026 00:00 2,8 °C 2,0 °C -1,0 °C 96 % 1009,2 hPa 0,0 l/m² 0,00 h 0,00 h 0 W/m² 8,6 km/h (2 Bft) 98,38 %
09.02.2026 01:00 2,4 °C 1,4 °C -1,5 °C 96 % 1008,9 hPa 0,0 l/m² 0,00 h 0,00 h 0 W/m² 9,1 km/h (2 Bft) 97,37 %
09.02.2026 02:00 2,2 °C 1,4 °C -1,7 °C 96 % 1008,6 hPa 0,0 l/m² 0,00 h 0,00 h 0 W/m² 12,3 km/h (3 Bft) 96,99 %
09.02.2026 03:00 2,1 °C 1,2 °C -1,7 °C 97 % 1008,1 hPa 0,0 l/m² 0,00 h 0,00 h 0 W/m² 14,8 km/h (3 Bft) 96,45 %
09.02.2026 04:00 1,8 °C 1,0 °C -1,8 °C 97 % 1007,9 hPa 0,0 l/m² 0,00 h 0,00 h 0 W/m² 9,3 km/h (2 Bft) 98,58 %
09.02.2026 05:00 1,6 °C 0,4 °C -2,3 °C 97 % 1007,7 hPa 0,0 l/m² 0,00 h 0,00 h 0 W/m² 1,9 km/h (1 Bft) 95,59 %
09.02.2026 06:00 1,0 °C -0,1 °C -2,8 °C 97 % 1007,7 hPa 0,0 l/m² 0,00 h 0,00 h 0 W/m² 2,7 km/h (1 Bft) 97,32 %
09.02.2026 07:00 1,2 °C 0,2 °C -2,4 °C 97 % 1007,5 hPa 0,0 l/m² 0,00 h 0,00 h 0 W/m² 2,1 km/h (1 Bft) 99,16 %
09.02.2026 08:00 1,2 °C 0,7 °C -2,2 °C 97 % 1007,8 hPa 0,0 l/m² 0,00 h 0,00 h 20 W/m² 7,2 km/h (2 Bft) 93,53 %
09.02.2026 09:00 1,5 °C 2,0 °C -1,4 °C 98 % 1008,0 hPa 0,2 l/m² 0,03 h 0,00 h 72 W/m² 10,0 km/h (2 Bft) 99,00 %
09.02.2026 10:00 3,0 °C 7,1 °C 0,0 °C 98 % 1007,5 hPa 0,0 l/m² 0,93 h 0,00 h 214 W/m² 13,0 km/h (3 Bft) 97,85 %
09.02.2026 11:00 4,5 °C 8,7 °C 1,7 °C 96 % 1007,2 hPa 0,0 l/m² 0,97 h 0,00 h 236 W/m² 13,7 km/h (3 Bft) 97,10 %
09.02.2026 12:00 6,3 °C 9,5 °C 3,4 °C 87 % 1006,5 hPa 0,0 l/m² 0,97 h 0,00 h 308 W/m² 17,9 km/h (3 Bft) 95,76 %
09.02.2026 13:00 7,9 °C 11,3 °C 3,7 °C 80 % 1006,0 hPa 0,0 l/m² 1,00 h 0,00 h 321 W/m² 23,2 km/h (4 Bft) 98,22 %
09.02.2026 14:00 7,8 °C 8,4 °C 3,3 °C 78 % 1005,5 hPa 0,0 l/m² 0,90 h 0,00 h 184 W/m² 22,0 km/h (4 Bft) 96,85 %
09.02.2026 15:00 7,4 °C 7,7 °C 2,9 °C 79 % 1005,1 hPa 0,0 l/m² 0,73 h 0,00 h 138 W/m² 21,9 km/h (4 Bft) 98,21 %
09.02.2026 16:00 7,0 °C 6,5 °C 2,4 °C 80 % 1004,7 hPa 0,0 l/m² 0,00 h 0,00 h 50 W/m² 16,8 km/h (3 Bft) 96,87 %
09.02.2026 17:00 6,3 °C 5,5 °C 1,8 °C 81 % 1004,4 hPa 0,0 l/m² 0,00 h 0,00 h 11 W/m² 21,0 km/h (4 Bft) 97,60 %
09.02.2026 18:00 5,7 °C 4,8 °C 1,0 °C 82 % 1003,9 hPa 0,0 l/m² 0,00 h 0,00 h 0 W/m² 19,1 km/h (3 Bft) 94,96 %
09.02.2026 19:00 5,1 °C 4,2 °C 0,6 °C 84 % 1003,6 hPa 0,0 l/m² 0,00 h 0,00 h 0 W/m² 18,6 km/h (3 Bft) 97,89 %
09.02.2026 20:00 4,6 °C 3,9 °C 0,2 °C 86 % 1003,5 hPa 0,0 l/m² 0,00 h 0,00 h 0 W/m² 17,8 km/h (3 Bft) 95,95 %
09.02.2026 21:00 4,3 °C 3,6 °C 0,0 °C 87 % 1003,1 hPa 0,0 l/m² 0,00 h 0,00 h 0 W/m² 18,8 km/h (3 Bft) 98,58 %
09.02.2026 22:00 4,1 °C 3,3 °C -0,3 °C 88 % 1002,7 hPa 0,0 l/m² 0,00 h 0,00 h 0 W/m² 17,8 km/h (3 Bft) 96,66 %
09.02.2026 23:00 3,8 °C 3,1 °C -0,6 °C 89 % 1002,2 hPa 0,0 l/m² 0,00 h 0,00 h 0 W/m² 18,6 km/h (3 Bft) 95,81 %
10.02.2026 00:00 3,6 °C 2,8 °C -0,6 °C 90 % 1001,7 hPa 0,0 l/m² 0,00 h 0,00 h 0 W/m² 17,6 km/h (3 Bft) 98,50 %
10.02.2026 01:00 3,6 °C 2,8 °C -0,6 °C 91 % 1001,2 hPa 0,0 l/m² 0,00 h 0,00 h 0 W/m² 18,7 km/h (3 Bft) 97,23 %
10.02.2026 02:00 3,5 °C 2,8 °C -0,7 °C 91 % 1000,6 hPa 0,0 l/m² 0,00 h 0,00 h 0 W/m² 17,4 km/h (3 Bft) 96,88 %
10.02.2026 03:00 3,6 °C 2,8 °C -0,6 °C 91 % 999,8 hPa 0,0 l/m² 0,00 h 0,00 h 0 W/m² 19,3 km/h (3 Bft) 98,57 %
10.02.2026 04:00 3,5 °C 2,8 °C -0,7 °C 90 % 998,9 hPa 0,0 l/m² 0,00 h 0,00 h 0 W/m² 20,3 km/h (4 Bft) 94,88 %
10.02.2026 05:00 3,3 °C 2,6 °C -1,1 °C 90 % 998,0 hPa 0,0 l/m² 0,00 h 0,00 h 0 W/m² 16,7 km/h (3 Bft) 95,35 %
10.02.2026 06:00 3,1 °C 2,4 °C -1,1 °C 90 % 997,3 hPa 0,0 l/m² 0,00 h 0,00 h 0 W/m² 15,5 km/h (3 Bft) 96,37 %
10.02.2026 07:00 3,4 °C 3,0 °C -0,8 °C 91 % 996,7 hPa 0,0 l/m² 0,00 h 0,07 h 0 W/m² 17,1 km/h (3 Bft) 96,59 %
10.02.2026 08:00 3,9 °C 3,3 °C -0,9 °C 92 % 996,4 hPa 0,5 l/m² 0,00 h 0,37 h 18 W/m² 21,6 km/h (4 Bft) 97,85 %
10.02.2026 09:00 4,3 °C 3,9 °C -0,3 °C 94 % 996,0 hPa 0,0 l/m² 0,00 h 0,03 h 47 W/m² 20,5 km/h (4 Bft) 96,36 %
10.02.2026 10:00 4,7 °C 4,7 °C 0,0 °C 94 % 995,6 hPa 0,0 l/m² 0,00 h 0,00 h 66 W/m² 22,4 km/h (4 Bft) 97,23 %
10.02.2026 11:00 5,3 °C 5,4 °C 0,9 °C 93 % 995,2 hPa 0,0 l/m² 0,00 h 0,00 h 88 W/m² 19,8 km/h (4 Bft) 96,16 %
10.02.2026 12:00 6,4 °C 6,8 °C 2,6 °C 92 % 994,4 hPa 0,0 l/m² 0,00 h 0,00 h 157 W/m² 20,8 km/h (4 Bft) 98,59 %
10.02.2026 13:00 7,9 °C 8,3 °C 4,1 °C 90 % 993,2 hPa 0,0 l/m² 0,10 h 0,00 h 155 W/m² 19,4 km/h (3 Bft) 97,02 %
10.02.2026 14:00 9,1 °C 9,2 °C 4,9 °C 88 % 992,4 hPa 0,0 l/m² 0,00 h 0,00 h 121 W/m² 17,8 km/h (3 Bft) 97,63 %
10.02.2026 15:00 9,5 °C 8,9 °C 4,9 °C 86 % 991,6 hPa 0,0 l/m² 0,00 h 0,00 h 40 W/m² 15,7 km/h (3 Bft) 96,91 %
10.02.2026 16:00 9,3 °C 8,3 °C 4,4 °C 87 % 991,1 hPa 0,0 l/m² 0,00 h 0,00 h 13 W/m² 8,1 km/h (2 Bft) 97,58 %
10.02.2026 17:00 9,2 °C 8,3 °C 4,3 °C 89 % 990,6 hPa 0,0 l/m² 0,00 h 0,07 h 8 W/m² 8,2 km/h (2 Bft) 96,76 %
10.02.2026 18:00 8,8 °C 7,7 °C 3,3 °C 92 % 990,1 hPa 0,7 l/m² 0,00 h 0,37 h 0 W/m² 11,8 km/h (2 Bft) 99,25 %
10.02.2026 19:00 8,4 °C 7,3 °C 3,2 °C 94 % 989,4 hPa 0,0 l/m² 0,00 h 0,00 h 0 W/m² 11,2 km/h (2 Bft) 96,05 %
10.02.2026 20:00 7,7 °C 6,8 °C 2,8 °C 95 % 988,5 hPa 0,0 l/m² 0,00 h 0,00 h 0 W/m² 12,0 km/h (2 Bft) 97,78 %
10.02.2026 21:00 7,6 °C 6,9 °C 2,8 °C 96 % 987,7 hPa 0,0 l/m² 0,00 h 0,00 h 0 W/m² 11,3 km/h (2 Bft) 97,05 %
10.02.2026 22:00 7,6 °C 6,9 °C 3,0 °C 96 % 987,0 hPa 0,2 l/m² 0,00 h 0,03 h 0 W/m² 11,1 km/h (2 Bft) 96,25 %
10.02.2026 23:00 7,7 °C 6,7 °C 3,3 °C 97 % 986,1 hPa 0,2 l/m² 0,00 h 0,03 h 0 W/m² 8,7 km/h (2 Bft) 97,92 %
11.02.2026 00:00 7,6 °C 6,7 °C 3,3 °C 97 % 985,2 hPa 0,2 l/m² 0,00 h 0,03 h 0 W/m² 9,1 km/h (2 Bft) 98,75 %
11.02.2026 01:00 7,7 °C 7,0 °C 3,3 °C 98 % 984,3 hPa 0,2 l/m² 0,00 h 0,13 h 0 W/m² 9,5 km/h (2 Bft) 95,47 %
11.02.2026 02:00 7,9 °C 7,2 °C 3,9 °C 98 % 983,6 hPa 0,0 l/m² 0,00 h 0,03 h 0 W/m² 10,1 km/h (2 Bft) 98,91 %
11.02.2026 03:00 8,1 °C 7,2 °C 3,9 °C 99 % 983,0 hPa 0,0 l/m² 0,00 h 0,00 h 0 W/m² 11,1 km/h (2 Bft) 98,50 %
11.02.2026 04:00 8,1 °C 7,2 °C 3,9 °C 99 % 982,8 hPa 0,0 l/m² 0,00 h 0,00 h 0 W/m² 12,2 km/h (2 Bft) 95,50 %
11.02.2026 05:00 8,1 °C 7,2 °C 3,9 °C 99 % 983,0 hPa 0,5 l/m² 0,00 h 0,20 h 0 W/m² 9,0 km/h (2 Bft) 99,80 %
11.02.2026 06:00 8,1 °C 7,2 °C 3,9 °C 99 % 983,0 hPa 0,2 l/m² 0,00 h 0,03 h 0 W/m² 6,9 km/h (2 Bft) 94,84 %
11.02.2026 07:00 8,1 °C 7,3 °C 4,2 °C 99 % 983,1 hPa 0,2 l/m² 0,00 h 0,03 h 0 W/m² 5,9 km/h (2 Bft) 97,15 %
11.02.2026 08:00 8,6 °C 7,9 °C 4,6 °C 99 % 983,5 hPa 0,0 l/m² 0,00 h 0,00 h 12 W/m² 5,7 km/h (1 Bft) 96,63 %
11.02.2026 09:00 9,2 °C 8,7 °C 5,4 °C 100 % 984,0 hPa 0,0 l/m² 0,00 h 0,03 h 27 W/m² 7,4 km/h (2 Bft) 97,59 %
11.02.2026 10:00 9,8 °C 9,4 °C 5,9 °C 100 % 984,4 hPa 0,0 l/m² 0,00 h 0,00 h 39 W/m² 8,8 km/h (2 Bft) 96,35 %
11.02.2026 11:00 10,0 °C 9,8 °C 6,2 °C 100 % 984,8 hPa 0,0 l/m² 0,00 h 0,00 h 57 W/m² 11,1 km/h (2 Bft) 98,28 %
11.02.2026 12:00 10,3 °C 10,5 °C 6,8 °C 100 % 984,9 hPa 0,0 l/m² 0,00 h 0,00 h 105 W/m² 11,1 km/h (2 Bft) 96,74 %
11.02.2026 13:00 10,8 °C 11,2 °C 6,9 °C 99 % 984,8 hPa 0,0 l/m² 0,00 h 0,10 h 102 W/m² 13,7 km/h (3 Bft) 97,56 %
11.02.2026 14:00 11,4 °C 11,9 °C 7,3 °C 96 % 984,7 hPa 0,2 l/m² 0,23 h 0,07 h 150 W/m² 13,9 km/h (3 Bft) 96,33 %
11.02.2026 15:00 11,6 °C 11,3 °C 7,4 °C 95 % 984,5 hPa 0,0 l/m² 0,00 h 0,13 h 61 W/m² 13,1 km/h (3 Bft) 98,01 %
11.02.2026 16:00 10,9 °C 10,0 °C 6,7 °C 96 % 984,6 hPa 1,4 l/m² 0,00 h 0,73 h 21 W/m² 12,3 km/h (3 Bft) 97,02 %
11.02.2026 17:00 10,5 °C 9,7 °C 6,3 °C 97 % 984,5 hPa 0,7 l/m² 0,10 h 0,30 h 19 W/m² 11,4 km/h (2 Bft) 97,30 %
11.02.2026 18:00 10,1 °C 9,4 °C 5,9 °C 98 % 984,6 hPa 0,0 l/m² 0,00 h 0,00 h 0 W/m² 16,5 km/h (3 Bft) 97,24 %
11.02.2026 19:00 9,7 °C 8,9 °C 5,5 °C 97 % 984,5 hPa 0,0 l/m² 0,00 h 0,00 h 0 W/m² 14,4 km/h (3 Bft) 97,04 %
11.02.2026 20:00 9,5 °C 8,6 °C 5,0 °C 95 % 984,0 hPa 0,0 l/m² 0,00 h 0,00 h 0 W/m² 14,8 km/h (3 Bft) 97,52 %
11.02.2026 21:00 9,2 °C 8,2 °C 4,6 °C 95 % 983,6 hPa 0,0 l/m² 0,00 h 0,00 h 0 W/m² 19,7 km/h (3 Bft) 98,06 %
11.02.2026 22:00 8,8 °C 7,8 °C 4,4 °C 95 % 982,6 hPa 0,0 l/m² 0,00 h 0,00 h 0 W/m² 7,7 km/h (2 Bft) 95,90 %
11.02.2026 23:00 8,4 °C 7,5 °C 4,4 °C 96 % 981,2 hPa 0,0 l/m² 0,00 h 0,00 h 0 W/m² 8,9 km/h (2 Bft) 98,22 %
12.02.2026 00:00 8,3 °C 7,8 °C 4,4 °C 96 % 979,7 hPa 0,2 l/m² 0,00 h 0,23 h 0 W/m² 12,7 km/h (3 Bft) 97,86 %
12.02.2026 01:00 8,2 °C 7,3 °C 4,3 °C 96 % 978,4 hPa 2,6 l/m² 0,00 h 0,87 h 0 W/m² 13,7 km/h (3 Bft) 96,16 %
12.02.2026 02:00 8,2 °C 7,2 °C 4,4 °C 98 % 976,6 hPa 1,0 l/m² 0,00 h 0,23 h 0 W/m² 16,0 km/h (3 Bft) 98,82 %
12.02.2026 03:00 8,2 °C 7,2 °C 4,4 °C 98 % 975,2 hPa 0,7 l/m² 0,00 h 0,57 h 0 W/m² 16,9 km/h (3 Bft) 96,45 %
12.02.2026 04:00 8,1 °C 7,2 °C 4,4 °C 98 % 974,4 hPa 1,2 l/m² 0,00 h 0,47 h 0 W/m² 16,2 km/h (3 Bft) 97,65 %
12.02.2026 05:00 8,1 °C 7,2 °C 4,4 °C 99 % 974,2 hPa 1,0 l/m² 0,00 h 0,10 h 0 W/m² 9,8 km/h (2 Bft) 97,09 %
12.02.2026 06:00 8,0 °C 7,2 °C 4,4 °C 99 % 973,9 hPa 0,2 l/m² 0,00 h 0,13 h 0 W/m² 5,0 km/h (1 Bft) 95,67 %
12.02.2026 07:00 8,0 °C 7,2 °C 4,4 °C 99 % 974,1 hPa 0,7 l/m² 0,00 h 0,07 h 0 W/m² 0,0 km/h (0 Bft) 96,70 %
12.02.2026 08:00 8,0 °C 7,2 °C 4,4 °C 99 % 974,6 hPa 2,2 l/m² 0,00 h 0,00 h 9 W/m² 0,0 km/h (0 Bft) 97,39 %
12.02.2026 09:00 8,2 °C 7,4 °C 5,0 °C 99 % 975,4 hPa 1,0 l/m² 0,00 h 0,67 h 30 W/m² 5,3 km/h (1 Bft) 97,58 %
12.02.2026 10:00 8,2 °C 7,7 °C 5,0 °C 99 % 976,9 hPa 0,7 l/m² 0,00 h 0,73 h 50 W/m² 17,4 km/h (3 Bft) 97,23 %
12.02.2026 11:00 8,0 °C 7,5 °C 5,0 °C 99 % 978,7 hPa 0,2 l/m² 0,00 h 0,13 h 58 W/m² 21,0 km/h (4 Bft) 96,60 %
12.02.2026 12:00 8,3 °C 8,3 °C 5,1 °C 99 % 980,2 hPa 0,0 l/m² 0,00 h 0,00 h 113 W/m² 18,5 km/h (3 Bft) 97,36 %
12.02.2026 13:00 8,8 °C 8,3 °C 5,5 °C 98 % 981,3 hPa 0,0 l/m² 0,00 h 0,07 h 74 W/m² 14,2 km/h (3 Bft) 96,80 %
12.02.2026 14:00 9,7 °C 10,7 °C 6,2 °C 96 % 982,0 hPa 0,0 l/m² 0,57 h 0,00 h 217 W/m² 14,9 km/h (3 Bft) 95,67 %
12.02.2026 15:00 9,9 °C 9,4 °C 6,2 °C 93 % 983,0 hPa 0,5 l/m² 0,00 h 0,13 h 60 W/m² 13,5 km/h (3 Bft) 97,66 %
12.02.2026 16:00 9,1 °C 8,5 °C 5,2 °C 96 % 983,8 hPa 0,0 l/m² 0,00 h 0,00 h 28 W/m² 11,4 km/h (2 Bft) 92,96 %
12.02.2026 17:00 8,7 °C 8,0 °C 4,9 °C 96 % 984,7 hPa 0,2 l/m² 0,00 h 0,13 h 10 W/m² 11,1 km/h (2 Bft) 98,90 %
12.02.2026 18:00 8,6 °C 7,8 °C 4,4 °C 96 % 985,5 hPa 0,0 l/m² 0,00 h 0,00 h 0 W/m² 9,4 km/h (2 Bft) 97,36 %
12.02.2026 19:00 8,4 °C 7,8 °C 4,4 °C 95 % 986,2 hPa 0,0 l/m² 0,00 h 0,00 h 0 W/m² 12,6 km/h (3 Bft) 96,61 %
12.02.2026 20:00 8,2 °C 7,6 °C 4,4 °C 94 % 986,7 hPa 0,0 l/m² 0,00 h 0,00 h 0 W/m² 11,7 km/h (2 Bft) 96,22 %
12.02.2026 21:00 8,2 °C 7,3 °C 4,4 °C 95 % 987,4 hPa 0,0 l/m² 0,00 h 0,00 h 0 W/m² 9,3 km/h (2 Bft) 95,20 %
12.02.2026 22:00 8,1 °C 7,3 °C 4,4 °C 94 % 987,8 hPa 0,0 l/m² 0,00 h 0,00 h 0 W/m² 10,6 km/h (2 Bft) 96,02 %
12.02.2026 23:00 8,1 °C 7,2 °C 4,4 °C 93 % 988,1 hPa 0,0 l/m² 0,00 h 0,00 h 0 W/m² 7,7 km/h (2 Bft) 98,27 %
13.02.2026 00:00 7,6 °C 6,8 °C 3,8 °C 95 % 988,6 hPa 0,2 l/m² 0,00 h 0,03 h 0 W/m² 12,3 km/h (3 Bft) 97,71 %
13.02.2026 01:00 6,7 °C 6,1 °C 3,3 °C 96 % 989,3 hPa 0,0 l/m² 0,00 h 0,07 h 0 W/m² 15,7 km/h (3 Bft) 94,76 %
13.02.2026 02:00 6,1 °C 5,7 °C 2,8 °C 92 % 990,1 hPa 0,0 l/m² 0,00 h 0,00 h 0 W/m² 18,5 km/h (3 Bft) 97,03 %
13.02.2026 03:00 5,7 °C 5,1 °C 2,2 °C 91 % 990,6 hPa 0,0 l/m² 0,00 h 0,00 h 0 W/m² 15,2 km/h (3 Bft) 97,87 %
13.02.2026 04:00 5,6 °C 5,0 °C 2,2 °C 90 % 990,9 hPa 0,0 l/m² 0,00 h 0,00 h 0 W/m² 20,6 km/h (4 Bft) 95,04 %
13.02.2026 05:00 5,5 °C 5,0 °C 1,7 °C 90 % 991,3 hPa 0,0 l/m² 0,00 h 0,00 h 0 W/m² 13,7 km/h (3 Bft) 94,94 %
13.02.2026 06:00 5,4 °C 5,0 °C 1,7 °C 90 % 991,3 hPa 0,0 l/m² 0,00 h 0,00 h 0 W/m² 13,1 km/h (3 Bft) 99,47 %
13.02.2026 07:00 5,3 °C 4,8 °C 1,6 °C 91 % 991,6 hPa 0,0 l/m² 0,00 h 0,00 h 0 W/m² 7,3 km/h (2 Bft) 95,52 %
13.02.2026 08:00 4,7 °C 4,1 °C 1,1 °C 92 % 992,2 hPa 0,0 l/m² 0,00 h 0,00 h 16 W/m² 8,3 km/h (2 Bft) 98,24 %
13.02.2026 09:00 4,5 °C 4,6 °C 1,4 °C 92 % 992,4 hPa 0,0 l/m² 0,00 h 0,00 h 62 W/m² 8,5 km/h (2 Bft) 96,18 %
13.02.2026 10:00 5,0 °C 5,6 °C 2,1 °C 90 % 992,9 hPa 0,0 l/m² 0,00 h 0,00 h 114 W/m² 4,8 km/h (1 Bft) 94,06 %
13.02.2026 11:00 5,8 °C 6,6 °C 2,7 °C 88 % 993,3 hPa 0,0 l/m² 0,00 h 0,00 h 121 W/m² 6,3 km/h (2 Bft) 97,91 %
13.02.2026 12:00 6,6 °C 8,8 °C 3,8 °C 85 % 993,4 hPa 0,0 l/m² 0,77 h 0,00 h 260 W/m² 9,8 km/h (2 Bft) 98,19 %
13.02.2026 13:00 6,8 °C 7,8 °C 3,2 °C 83 % 993,3 hPa 0,0 l/m² 0,07 h 0,00 h 168 W/m² 10,7 km/h (2 Bft) 95,26 %
13.02.2026 14:00 6,6 °C 7,9 °C 3,1 °C 82 % 993,3 hPa 0,0 l/m² 0,10 h 0,00 h 155 W/m² 9,2 km/h (2 Bft) 97,49 %
13.02.2026 15:00 6,1 °C 6,6 °C 2,2 °C 84 % 993,5 hPa 0,0 l/m² 0,10 h 0,00 h 109 W/m² 12,1 km/h (2 Bft) 98,22 %
13.02.2026 16:00 4,9 °C 4,6 °C 1,1 °C 86 % 994,1 hPa 0,0 l/m² 0,00 h 0,00 h 45 W/m² 9,8 km/h (2 Bft) 96,28 %
13.02.2026 17:00 4,2 °C 3,7 °C 0,4 °C 87 % 994,6 hPa 0,0 l/m² 0,00 h 0,00 h 12 W/m² 10,6 km/h (2 Bft) 97,38 %
13.02.2026 18:00 3,6 °C 3,1 °C -0,1 °C 88 % 995,4 hPa 0,0 l/m² 0,00 h 0,00 h 0 W/m² 11,3 km/h (2 Bft) 98,78 %
13.02.2026 19:00 3,2 °C 2,8 °C -0,6 °C 89 % 996,0 hPa 0,0 l/m² 0,00 h 0,00 h 0 W/m² 13,2 km/h (3 Bft) 95,98 %
13.02.2026 20:00 3,0 °C 2,5 °C -1,0 °C 90 % 996,7 hPa 0,0 l/m² 0,00 h 0,00 h 0 W/m² 13,0 km/h (3 Bft) 96,24 %
13.02.2026 21:00 2,7 °C 2,2 °C -1,1 °C 90 % 997,5 hPa 0,0 l/m² 0,00 h 0,00 h 0 W/m² 11,6 km/h (2 Bft) 98,54 %
13.02.2026 22:00 2,3 °C 1,8 °C -1,6 °C 91 % 998,1 hPa 0,0 l/m² 0,00 h 0,00 h 0 W/m² 14,5 km/h (3 Bft) 97,31 %
13.02.2026 23:00 2,1 °C 1,7 °C -1,7 °C 91 % 998,7 hPa 0,0 l/m² 0,00 h 0,00 h 0 W/m² 11,7 km/h (2 Bft) 97,49 %
14.02.2026 00:00 1,9 °C 1,5 °C -1,7 °C 91 % 999,8 hPa 0,0 l/m² 0,00 h 0,00 h 0 W/m² 11,4 km/h (2 Bft) 97,57 %
14.02.2026 01:00 1,6 °C 1,1 °C -2,2 °C 91 % 1000,4 hPa 0,0 l/m² 0,00 h 0,00 h 0 W/m² 13,7 km/h (3 Bft) 98,51 %
14.02.2026 02:00 1,4 °C 1,1 °C -2,2 °C 90 % 1001,1 hPa 0,0 l/m² 0,00 h 0,00 h 0 W/m² 14,0 km/h (3 Bft) 95,48 %
14.02.2026 03:00 1,3 °C 0,9 °C -2,2 °C 90 % 1001,8 hPa 0,0 l/m² 0,00 h 0,00 h 0 W/m² 14,4 km/h (3 Bft) 97,58 %
14.02.2026 04:00 1,1 °C 0,6 °C -2,8 °C 90 % 1002,8 hPa 0,0 l/m² 0,00 h 0,00 h 0 W/m² 11,9 km/h (2 Bft) 96,46 %
14.02.2026 05:00 0,9 °C 0,6 °C -2,8 °C 90 % 1004,0 hPa 0,0 l/m² 0,00 h 0,00 h 0 W/m² 14,3 km/h (3 Bft) 96,23 %
14.02.2026 06:00 0,7 °C 0,4 °C -2,8 °C 90 % 1004,9 hPa 0,0 l/m² 0,00 h 0,00 h 0 W/m² 14,3 km/h (3 Bft) 98,68 %
14.02.2026 07:00 0,6 °C 0,0 °C -3,1 °C 91 % 1006,2 hPa 0,0 l/m² 0,00 h 0,00 h 0 W/m² 14,5 km/h (3 Bft) 97,25 %
14.02.2026 08:00 0,5 °C 0,0 °C -3,3 °C 91 % 1007,7 hPa 0,0 l/m² 0,00 h 0,00 h 6 W/m² 13,2 km/h (3 Bft) 97,78 %
14.02.2026 09:00 0,5 °C 0,0 °C -3,3 °C 91 % 1008,8 hPa 0,0 l/m² 0,00 h 0,00 h 12 W/m² 11,3 km/h (2 Bft) 96,21 %
14.02.2026 10:00 0,6 °C 0,2 °C -3,2 °C 90 % 1009,8 hPa 0,0 l/m² 0,00 h 0,00 h 24 W/m² 15,2 km/h (3 Bft) 97,35 %
14.02.2026 11:00 0,7 °C 0,6 °C -2,8 °C 90 % 1010,8 hPa 0,0 l/m² 0,00 h 0,00 h 47 W/m² 12,6 km/h (3 Bft) 95,84 %
14.02.2026 12:00 0,8 °C 0,8 °C -2,8 °C 89 % 1011,7 hPa 0,0 l/m² 0,00 h 0,00 h 50 W/m² 14,0 km/h (3 Bft) 95,57 %
14.02.2026 13:00 1,0 °C 1,1 °C -2,5 °C 88 % 1012,5 hPa 0,0 l/m² 0,00 h 0,00 h 62 W/m² 17,0 km/h (3 Bft) 99,29 %
14.02.2026 14:00 1,2 °C 1,1 °C -2,3 °C 87 % 1013,2 hPa 0,0 l/m² 0,00 h 0,00 h 55 W/m² 16,7 km/h (3 Bft) 94,68 %
14.02.2026 15:00 1,1 °C 1,0 °C -2,8 °C 86 % 1014,5 hPa 0,0 l/m² 0,00 h 0,00 h 35 W/m² 14,8 km/h (3 Bft) 97,95 %
14.02.2026 16:00 1,1 °C 0,9 °C -2,7 °C 85 % 1015,6 hPa 0,0 l/m² 0,00 h 0,00 h 19 W/m² 11,8 km/h (2 Bft) 96,29 %
14.02.2026 17:00 0,8 °C 0,3 °C -3,0 °C 84 % 1016,3 hPa 0,0 l/m² 0,00 h 0,00 h 7 W/m² 12,3 km/h (3 Bft) 97,33 %
14.02.2026 18:00 0,3 °C -0,1 °C -3,5 °C 85 % 1017,1 hPa 0,0 l/m² 0,00 h 0,00 h 0 W/m² 13,1 km/h (3 Bft) 94,92 %
14.02.2026 19:00 0,1 °C -0,6 °C -3,9 °C 85 % 1018,3 hPa 0,0 l/m² 0,00 h 0,00 h 0 W/m² 13,6 km/h (3 Bft) 95,67 %
14.02.2026 20:00 -0,2 °C -0,8 °C -4,0 °C 83 % 1019,0 hPa 0,0 l/m² 0,00 h 0,00 h 0 W/m² 8,5 km/h (2 Bft) 98,82 %
14.02.2026 21:00 -0,6 °C -1,6 °C -4,6 °C 83 % 1019,1 hPa 0,0 l/m² 0,00 h 0,00 h 0 W/m² 3,7 km/h (1 Bft) 96,00 %
14.02.2026 22:00 -1,2 °C -2,8 °C -5,7 °C 84 % 1019,6 hPa 0,0 l/m² 0,00 h 0,00 h 0 W/m² 1,4 km/h (1 Bft) 98,16 %
14.02.2026 23:00 -2,3 °C -3,9 °C -6,8 °C 85 % 1020,1 hPa 0,0 l/m² 0,00 h 0,00 h 0 W/m² 0,3 km/h (0 Bft) 97,59 %
15.02.2026 00:00 -3,1 °C -4,4 °C -7,2 °C 86 % 1020,3 hPa 0,0 l/m² 0,00 h 0,00 h 0 W/m² 0,1 km/h (0 Bft) 97,93 %
15.02.2026 01:00 -3,5 °C -4,2 °C -7,1 °C 88 % 1020,4 hPa 0,0 l/m² 0,00 h 0,00 h 0 W/m² 0,0 km/h (0 Bft) 94,71 %
15.02.2026 02:00 -3,3 °C -4,2 °C -7,0 °C 90 % 1020,3 hPa 0,0 l/m² 0,00 h 0,00 h 0 W/m² 0,7 km/h (0 Bft) 97,85 %
15.02.2026 03:00 -3,7 °C -4,9 °C -7,4 °C 90 % 1020,4 hPa 0,0 l/m² 0,00 h 0,00 h 0 W/m² 0,0 km/h (0 Bft) 96,51 %
15.02.2026 04:00 -4,3 °C -5,4 °C -8,0 °C 90 % 1019,9 hPa 0,0 l/m² 0,00 h 0,00 h 0 W/m² 0,0 km/h (0 Bft) 98,44 %
15.02.2026 05:00 -4,7 °C -5,5 °C -8,1 °C 90 % 1019,9 hPa 0,0 l/m² 0,00 h 0,00 h 0 W/m² 0,3 km/h (0 Bft) 96,55 %
15.02.2026 06:00 -4,3 °C -5,0 °C -7,8 °C 92 % 1019,3 hPa 0,0 l/m² 0,00 h 0,00 h 0 W/m² 1,7 km/h (1 Bft) 94,85 %
15.02.2026 07:00 -4,2 °C -4,7 °C -7,7 °C 93 % 1018,8 hPa 0,0 l/m² 0,00 h 0,00 h 4 W/m² 3,3 km/h (1 Bft) 97,62 %
15.02.2026 08:00 -3,7 °C -3,9 °C -7,1 °C 94 % 1018,6 hPa 0,0 l/m² 0,00 h 0,00 h 22 W/m² 5,7 km/h (1 Bft) 94,71 %
15.02.2026 09:00 -2,1 °C -0,6 °C -5,6 °C 94 % 1017,9 hPa 0,0 l/m² 0,13 h 0,00 h 71 W/m² 13,1 km/h (3 Bft) 98,12 %
15.02.2026 10:00 -0,1 °C 3,6 °C -3,8 °C 92 % 1016,7 hPa 0,0 l/m² 0,90 h 0,00 h 224 W/m² 18,0 km/h (3 Bft) 97,84 %
15.02.2026 11:00 1,9 °C 8,9 °C 1,3 °C 82 % 1015,6 hPa 0,0 l/m² 1,00 h 0,00 h 388 W/m² 19,8 km/h (4 Bft) 95,55 %
15.02.2026 12:00 3,4 °C 6,8 °C 1,2 °C 74 % 1013,8 hPa 0,0 l/m² 1,00 h 0,00 h 433 W/m² 25,7 km/h (4 Bft) 97,82 %
15.02.2026 13:00 4,5 °C 9,4 °C 0,2 °C 70 % 1011,6 hPa 0,0 l/m² 1,00 h 0,00 h 449 W/m² 32,6 km/h (5 Bft) 94,88 %
15.02.2026 14:00 4,6 °C 6,4 °C 0,1 °C 67 % 1010,0 hPa 0,0 l/m² 0,90 h 0,00 h 296 W/m² 33,4 km/h (5 Bft) 92,87 %
15.02.2026 15:00 3,9 °C 3,5 °C -0,3 °C 70 % 1008,3 hPa 0,0 l/m² 0,00 h 0,00 h 73 W/m² 27,3 km/h (4 Bft) 98,55 %
15.02.2026 16:00 3,3 °C 2,8 °C -1,0 °C 72 % 1006,4 hPa 0,0 l/m² 0,00 h 0,00 h 25 W/m² 23,8 km/h (4 Bft) 97,94 %
15.02.2026 17:00 3,0 °C 2,3 °C -1,4 °C 74 % 1004,9 hPa 0,0 l/m² 0,00 h 0,00 h 7 W/m² 20,5 km/h (4 Bft) 95,26 %
15.02.2026 18:00 2,4 °C 1,2 °C -2,7 °C 80 % 1003,4 hPa 0,0 l/m² 0,00 h 0,03 h 0 W/m² 24,5 km/h (4 Bft) 97,91 %
15.02.2026 19:00 0,8 °C -0,3 °C -4,4 °C 92 % 1001,7 hPa 0,0 l/m² 0,00 h 0,23 h 0 W/m² 21,2 km/h (4 Bft) 98,14 %
15.02.2026 20:00 0,5 °C -0,6 °C -4,3 °C 95 % 1000,5 hPa 0,0 l/m² 0,00 h 0,37 h 0 W/m² 21,7 km/h (4 Bft) 96,10 %
15.02.2026 21:00 0,4 °C -0,3 °C -4,0 °C 96 % 999,1 hPa 0,0 l/m² 0,00 h 0,07 h 0 W/m² 22,0 km/h (4 Bft) 97,72 %
15.02.2026 22:00 0,6 °C -0,2 °C -3,9 °C 97 % 997,9 hPa 0,7 l/m² 0,00 h 0,23 h 0 W/m² 20,5 km/h (4 Bft) 97,84 %
15.02.2026 23:00 0,5 °C -0,1 °C -3,9 °C 97 % 997,0 hPa 0,7 l/m² 0,00 h 0,27 h 0 W/m² 17,0 km/h (3 Bft) 96,38 %
Min-Datum _ 15.02.26 15.02.26 15.02.26 15.02.26 12.02.26 - - - - 09.02.26 12.02.26
_ Min-Zeit 05:20 05:16 04:32 14:00 06:46 - - - - 00:44 16:08
Minimum _ -4,9 °C -6,1 °C -8,3 °C 67 % 973,7 hPa - - - - 0,0 km/h (0 Bft) 4,76 %
Max-Datum _ 11.02.26 12.02.26 11.02.26 11.02.26 15.02.26 12.02.26 09.02.26 12.02.26 15.02.26 15.02.26 09.02.26
_ Max-Zeit 15:02 14:40 14:44 09:08 00:58 01:06 12:12 03:11 14:28 14:20 00:00
Maximum _ 11,7 °C 12,8 °C 7,8 °C 100 % 1020,5 hPa 2,6 l/m² 0,07 h 0,08 h 502 W/m² 48,3 km/h
S-SO (6 Bft)
100,00 %
Durchschnitt _ 4,7 °C 4,4 °C 0,8 °C 91 % 997,2 hPa #19,9 l/m² #12:30 h #8:40 h 97 W/m² 13,0 km/h (3 Bft) 97,00 %
© 2026 W. Hausmann